Time;durP1;ratioP1;P1;durP2;ratioP2;P2;SDS_P1;SDS_P2;PMS_P1;PMS_P2;Temp;Humidity;BMP_temperature;BMP_pressure;BME280_temperature;BME280_humidity;BME280_pressure;Samples;Min_cycle;Max_cycle;Signal;HPM_P1;HPM_P2
2023/12/12 00:00:29;;;;;;;23.67;6.00;;;10.30;99.90;;;;;;4998671;28;20038;-74
2023/12/12 00:02:56;;;;;;;21.10;5.78;;;10.40;99.90;;;;;;4996320;28;20030;-72
2023/12/12 00:05:21;;;;;;;16.02;5.32;;;10.40;99.90;;;;;;4999492;28;20022;-72
2023/12/12 00:07:47;;;;;;;21.27;5.65;;;10.40;99.90;;;;;;4998740;28;20811;-72
2023/12/12 00:10:13;;;;;;;26.73;5.70;;;10.40;99.90;;;;;;4998298;28;20025;-74
2023/12/12 00:12:39;;;;;;;23.13;5.40;;;10.40;99.90;;;;;;4993586;28;20037;-73
2023/12/12 00:15:05;;;;;;;23.67;5.82;;;10.40;99.90;;;;;;4998806;28;20127;-71
2023/12/12 00:17:31;;;;;;;32.00;5.95;;;10.40;99.90;;;;;;4994840;28;20027;-71
2023/12/12 00:19:57;;;;;;;25.45;5.78;;;10.40;99.90;;;;;;4997946;28;20037;-71
2023/12/12 00:22:23;;;;;;;31.27;6.18;;;10.40;99.90;;;;;;4995069;28;20116;-72
2023/12/12 00:24:48;;;;;;;28.92;5.82;;;10.40;99.90;;;;;;4998303;28;20022;-71
2023/12/12 00:27:14;;;;;;;24.65;6.03;;;10.40;99.90;;;;;;4999251;28;20030;-71
2023/12/12 00:29:40;;;;;;;30.70;5.75;;;10.40;99.90;;;;;;4998449;28;20411;-72
2023/12/12 00:32:06;;;;;;;22.63;5.97;;;10.40;99.90;;;;;;4998613;28;20026;-71
2023/12/12 00:34:36;;;;;;;30.77;6.72;;;10.40;99.90;;;;;;4980940;28;20057;-72
2023/12/12 00:37:01;;;;;;;16.88;5.45;;;10.40;99.90;;;;;;4999307;28;20022;-71
2023/12/12 00:39:27;;;;;;;22.75;5.28;;;10.30;99.90;;;;;;4997016;28;20084;-73
2023/12/12 00:41:53;;;;;;;23.98;6.07;;;10.30;99.90;;;;;;4997353;28;20486;-74
2023/12/12 00:44:18;;;;;;;22.83;4.90;;;10.20;99.90;;;;;;4980441;28;20026;-75
2023/12/12 00:46:44;;;;;;;24.38;4.85;;;10.20;99.90;;;;;;4995086;28;20113;-72
2023/12/12 00:49:10;;;;;;;28.38;5.38;;;10.20;99.90;;;;;;5000953;28;20062;-75
2023/12/12 00:51:36;;;;;;;32.58;6.20;;;10.20;99.90;;;;;;4996385;28;20027;-73
2023/12/12 00:54:01;;;;;;;32.88;5.25;;;10.10;99.90;;;;;;4984712;28;20142;-74
2023/12/12 00:56:28;;;;;;;37.13;6.70;;;10.10;99.90;;;;;;5002320;28;20053;-72
2023/12/12 00:58:53;;;;;;;30.35;5.85;;;10.00;99.90;;;;;;4995520;28;20026;-71
2023/12/12 01:01:19;;;;;;;25.05;5.20;;;10.00;99.90;;;;;;4995165;28;20423;-72
2023/12/12 01:03:45;;;;;;;28.50;4.95;;;10.00;99.90;;;;;;5000056;28;20094;-71
2023/12/12 01:06:24;;;;;;;25.73;5.90;;;9.90;99.90;;;;;;4997845;28;20484;-71
2023/12/12 01:08:50;;;;;;;28.65;6.68;;;9.90;99.90;;;;;;4996739;28;20056;-72
2023/12/12 01:11:17;;;;;;;29.48;5.80;;;9.90;99.90;;;;;;4993749;28;20491;-71
2023/12/12 01:13:42;;;;;;;27.60;5.40;;;9.90;99.90;;;;;;4997056;28;20054;-75
2023/12/12 01:16:08;;;;;;;22.33;5.35;;;9.90;99.90;;;;;;4997082;28;20023;-71
2023/12/12 01:18:34;;;;;;;26.63;5.15;;;9.80;99.90;;;;;;4996956;28;20478;-72
2023/12/12 01:21:02;;;;;;;22.88;4.95;;;9.80;99.90;;;;;;4982175;28;20485;-71
2023/12/12 01:23:51;;;;;;;23.63;5.95;;;9.70;99.90;;;;;;4996969;28;20064;-73
2023/12/12 01:26:19;;;;;;;29.63;6.55;;;9.70;99.90;;;;;;5000273;28;20426;-72
2023/12/12 01:28:45;;;;;;;34.63;6.22;;;9.60;99.90;;;;;;4999624;28;20497;-71
2023/12/12 01:31:10;;;;;;;31.42;6.38;;;9.60;99.90;;;;;;4998607;28;20034;-73
2023/12/12 01:33:36;;;;;;;40.88;6.43;;;9.60;99.90;;;;;;4996044;28;20109;-71
2023/12/12 01:36:02;;;;;;;28.23;6.20;;;9.50;99.90;;;;;;5003740;28;20402;-71
2023/12/12 01:38:28;;;;;;;33.90;6.00;;;9.50;99.90;;;;;;4996410;28;20094;-71
2023/12/12 01:40:54;;;;;;;26.98;5.68;;;9.50;99.90;;;;;;4999333;28;20058;-72
2023/12/12 01:43:28;;;;;;;26.55;5.15;;;9.60;99.90;;;;;;5001077;28;20574;-73
2023/12/12 01:45:56;;;;;;;19.52;4.95;;;9.60;99.90;;;;;;4997100;28;20034;-71
2023/12/12 01:48:23;;;;;;;25.83;4.68;;;9.60;99.90;;;;;;5001010;28;20108;-75
2023/12/12 01:50:52;;;;;;;26.05;5.28;;;9.60;99.90;;;;;;5000775;28;20486;-74
2023/12/12 01:53:21;;;;;;;33.63;6.25;;;9.50;99.90;;;;;;5000456;28;20481;-70
2023/12/12 01:55:48;;;;;;;21.73;5.40;;;9.50;99.90;;;;;;5000791;28;20514;-72
2023/12/12 01:58:15;;;;;;;28.30;6.32;;;9.40;99.90;;;;;;4998311;28;20026;-70
2023/12/12 02:00:40;;;;;;;35.88;6.50;;;9.40;99.90;;;;;;4998851;28;20022;-72
2023/12/12 02:03:06;;;;;;;32.45;6.38;;;9.40;99.90;;;;;;4987866;28;20686;-73
2023/12/12 02:05:33;;;;;;;30.40;5.68;;;9.40;99.90;;;;;;5002445;28;20056;-73
2023/12/12 02:07:59;;;;;;;33.25;6.82;;;9.30;99.90;;;;;;5002541;28;20022;-74
2023/12/12 02:10:26;;;;;;;36.83;6.85;;;9.30;99.90;;;;;;5002734;28;20049;-72
2023/12/12 02:12:51;;;;;;;30.75;6.50;;;9.20;99.90;;;;;;5004280;28;20037;-72
2023/12/12 02:15:17;;;;;;;35.40;6.28;;;9.30;99.90;;;;;;4999876;28;20045;-72
2023/12/12 02:17:43;;;;;;;43.75;6.75;;;9.30;99.90;;;;;;5004047;28;20431;-72
2023/12/12 02:20:10;;;;;;;32.20;6.57;;;9.20;99.90;;;;;;5001647;28;20493;-71
2023/12/12 02:22:35;;;;;;;36.55;6.93;;;9.20;99.90;;;;;;4999362;28;20040;-72
2023/12/12 02:25:01;;;;;;;24.33;5.93;;;9.20;99.90;;;;;;5002586;28;20486;-73
2023/12/12 02:27:27;;;;;;;39.90;7.05;;;9.20;99.90;;;;;;4999351;28;20041;-72
2023/12/12 02:29:53;;;;;;;36.22;6.18;;;9.10;99.90;;;;;;4999230;28;20041;-71
2023/12/12 02:32:19;;;;;;;35.38;6.95;;;9.10;99.90;;;;;;5003224;28;20049;-72
2023/12/12 02:34:46;;;;;;;38.30;7.07;;;9.10;99.90;;;;;;4998593;28;20507;-71
2023/12/12 02:37:12;;;;;;;40.88;7.90;;;9.00;99.90;;;;;;4988412;28;20033;-71
2023/12/12 02:39:38;;;;;;;35.95;6.60;;;9.00;99.90;;;;;;4980195;28;20029;-71
2023/12/12 02:42:04;;;;;;;30.50;7.75;;;9.00;99.90;;;;;;5000340;28;20024;-71
2023/12/12 02:44:30;;;;;;;33.72;6.60;;;9.00;99.90;;;;;;5000873;28;20030;-71
2023/12/12 02:46:55;;;;;;;45.65;7.80;;;9.00;99.90;;;;;;4996233;28;20033;-73
2023/12/12 02:49:22;;;;;;;34.70;7.13;;;9.00;99.90;;;;;;5003128;28;20045;-73
2023/12/12 02:51:48;;;;;;;34.65;6.65;;;9.00;99.90;;;;;;5003772;28;20493;-72
2023/12/12 02:54:13;;;;;;;36.15;6.40;;;9.00;99.90;;;;;;4976699;28;20038;-71
2023/12/12 02:56:39;;;;;;;29.90;6.35;;;9.00;99.90;;;;;;4999854;28;20061;-71
2023/12/12 02:59:05;;;;;;;32.63;7.18;;;9.00;99.90;;;;;;4998368;28;20108;-72
2023/12/12 03:01:31;;;;;;;35.92;6.75;;;9.00;99.90;;;;;;5001684;28;20052;-75
2023/12/12 03:03:57;;;;;;;27.83;6.60;;;9.00;99.90;;;;;;4998968;28;20376;-72
2023/12/12 03:06:22;;;;;;;36.80;6.57;;;8.90;99.90;;;;;;5002284;28;20061;-71
2023/12/12 03:08:48;;;;;;;35.30;6.68;;;9.00;99.90;;;;;;5001646;28;20036;-71
2023/12/12 03:11:14;;;;;;;32.85;7.25;;;8.90;99.90;;;;;;5000681;28;20128;-73
2023/12/12 03:13:40;;;;;;;40.55;7.10;;;9.00;99.90;;;;;;4998119;28;20392;-75
2023/12/12 03:16:06;;;;;;;45.45;8.85;;;8.90;99.90;;;;;;4999097;28;20030;-74
2023/12/12 03:18:31;;;;;;;46.22;7.88;;;8.90;99.90;;;;;;5001993;28;20022;-74
2023/12/12 03:20:59;;;;;;;34.42;7.85;;;8.80;99.90;;;;;;5002916;28;20341;-72
2023/12/12 03:23:25;;;;;;;41.63;9.20;;;8.80;99.90;;;;;;5003804;28;20490;-72
2023/12/12 03:25:51;;;;;;;41.95;8.15;;;8.80;99.90;;;;;;4998590;28;20030;-71
2023/12/12 03:28:17;;;;;;;44.47;9.10;;;8.80;99.90;;;;;;5004641;28;20041;-72
2023/12/12 03:30:43;;;;;;;47.65;8.43;;;8.80;99.90;;;;;;5000404;28;20641;-71
2023/12/12 03:33:09;;;;;;;32.40;7.25;;;8.80;99.90;;;;;;4999017;28;20042;-71
2023/12/12 03:35:35;;;;;;;27.80;6.03;;;8.80;99.90;;;;;;4987769;28;20375;-71
2023/12/12 03:38:01;;;;;;;24.17;6.05;;;8.80;99.90;;;;;;4986592;28;20026;-71
2023/12/12 03:40:27;;;;;;;32.15;5.88;;;8.80;99.90;;;;;;4997854;28;20033;-71
2023/12/12 03:42:52;;;;;;;25.73;5.95;;;8.90;99.90;;;;;;5001613;28;20033;-71
2023/12/12 03:45:18;;;;;;;34.13;6.65;;;8.80;99.90;;;;;;4996371;28;20026;-73
2023/12/12 03:47:44;;;;;;;26.92;6.80;;;8.80;99.90;;;;;;4993967;28;20041;-73
2023/12/12 03:50:10;;;;;;;38.42;7.05;;;8.80;99.90;;;;;;4999506;28;20060;-71
2023/12/12 03:52:36;;;;;;;40.92;6.93;;;8.80;99.90;;;;;;4992705;28;20529;-71
2023/12/12 03:55:02;;;;;;;27.80;7.18;;;8.80;99.90;;;;;;4997219;28;20042;-71
2023/12/12 03:57:27;;;;;;;36.85;7.82;;;8.80;99.90;;;;;;5000653;28;20034;-71
2023/12/12 03:59:54;;;;;;;44.60;8.82;;;8.80;99.90;;;;;;5000386;28;20030;-72
2023/12/12 04:02:19;;;;;;;38.13;7.18;;;8.80;99.90;;;;;;4999192;28;20530;-71
2023/12/12 04:04:45;;;;;;;27.80;6.72;;;8.80;99.90;;;;;;5001771;28;20030;-71
2023/12/12 04:07:11;;;;;;;26.35;6.40;;;8.80;99.90;;;;;;4998619;28;20197;-72
2023/12/12 04:09:36;;;;;;;23.60;5.72;;;8.90;99.90;;;;;;4999973;28;20490;-71
2023/12/12 04:12:02;;;;;;;31.85;6.63;;;9.00;99.90;;;;;;4997096;28;20033;-71
2023/12/12 04:14:28;;;;;;;23.45;6.00;;;9.00;99.90;;;;;;4998787;28;20030;-71
2023/12/12 04:16:54;;;;;;;28.77;5.78;;;9.00;99.90;;;;;;4997576;28;20030;-72
2023/12/12 04:19:20;;;;;;;36.38;6.93;;;9.00;99.90;;;;;;4997781;28;20030;-72
2023/12/12 04:21:45;;;;;;;31.10;6.72;;;9.00;99.90;;;;;;4998784;28;20038;-71
2023/12/12 04:24:11;;;;;;;28.45;6.68;;;9.00;99.90;;;;;;5000381;28;20490;-71
2023/12/12 04:26:37;;;;;;;36.92;7.78;;;9.00;99.90;;;;;;4998887;28;20068;-72
2023/12/12 04:29:04;;;;;;;31.33;7.80;;;9.00;99.90;;;;;;4996393;28;20057;-72
2023/12/12 04:31:30;;;;;;;30.90;7.03;;;9.00;99.90;;;;;;4998487;28;20118;-71
2023/12/12 04:33:56;;;;;;;32.42;6.32;;;9.00;99.90;;;;;;4998886;28;20038;-73
2023/12/12 04:36:22;;;;;;;28.67;6.20;;;9.10;99.90;;;;;;5001622;28;20034;-72
2023/12/12 04:38:47;;;;;;;36.88;6.95;;;9.00;99.90;;;;;;4997712;28;20121;-71
2023/12/12 04:41:13;;;;;;;35.60;7.18;;;9.00;99.90;;;;;;4999536;28;20084;-72
2023/12/12 04:43:40;;;;;;;27.60;5.85;;;9.10;99.90;;;;;;4997820;28;20084;-70
2023/12/12 04:46:06;;;;;;;38.90;7.47;;;9.10;99.90;;;;;;4997579;28;20018;-72
2023/12/12 04:48:32;;;;;;;26.40;6.68;;;9.10;99.90;;;;;;4997727;28;20056;-71
2023/12/12 04:51:00;;;;;;;34.05;7.22;;;9.00;99.90;;;;;;4997949;28;20026;-71
2023/12/12 04:53:25;;;;;;;29.05;7.00;;;8.90;99.90;;;;;;4998150;28;20058;-71
2023/12/12 04:55:51;;;;;;;34.20;6.50;;;8.90;99.90;;;;;;4982241;28;20045;-72
2023/12/12 04:58:17;;;;;;;30.45;7.82;;;8.90;99.90;;;;;;5001925;28;20075;-70
2023/12/12 05:00:43;;;;;;;38.55;7.32;;;9.00;99.90;;;;;;5003834;28;20037;-71
2023/12/12 05:03:08;;;;;;;30.20;7.18;;;8.90;99.90;;;;;;5003052;28;20026;-72
2023/12/12 05:05:34;;;;;;;34.67;6.95;;;8.90;99.90;;;;;;5003681;28;20091;-71
2023/12/12 05:08:00;;;;;;;31.17;7.20;;;9.00;99.90;;;;;;5006802;28;20098;-71
2023/12/12 05:10:26;;;;;;;27.70;6.18;;;9.10;99.90;;;;;;5003573;28;20430;-71
2023/12/12 05:12:52;;;;;;;32.97;7.30;;;9.10;99.90;;;;;;5009306;28;20549;-71
2023/12/12 05:15:17;;;;;;;28.33;7.20;;;9.10;99.90;;;;;;5003769;28;20030;-72
2023/12/12 05:17:43;;;;;;;33.08;7.28;;;9.10;99.90;;;;;;5004685;28;20064;-72
2023/12/12 05:20:11;;;;;;;34.28;7.03;;;9.00;99.90;;;;;;5006703;28;20033;-71
2023/12/12 05:22:37;;;;;;;35.33;6.72;;;9.10;99.90;;;;;;5001460;28;20030;-72
2023/12/12 05:25:05;;;;;;;42.03;7.18;;;9.20;99.90;;;;;;5001679;28;20018;-71
2023/12/12 05:27:31;;;;;;;36.00;7.53;;;9.30;99.90;;;;;;5006751;28;20451;-70
2023/12/12 05:29:57;;;;;;;37.97;7.90;;;9.30;99.90;;;;;;5005714;28;20058;-71
2023/12/12 05:32:23;;;;;;;32.75;7.22;;;9.30;99.90;;;;;;5001578;28;20034;-71
2023/12/12 05:34:48;;;;;;;36.33;7.65;;;9.30;99.90;;;;;;5005179;28;20091;-71
2023/12/12 05:37:14;;;;;;;35.53;7.78;;;9.30;99.90;;;;;;5003245;28;20027;-72
2023/12/12 05:39:40;;;;;;;32.85;7.90;;;9.40;99.90;;;;;;5002158;28;20034;-72
2023/12/12 05:42:08;;;;;;;33.67;7.65;;;9.40;99.90;;;;;;5007997;28;20054;-71
2023/12/12 05:44:33;;;;;;;28.10;6.88;;;9.50;99.90;;;;;;5002870;28;20105;-71
2023/12/12 05:46:59;;;;;;;44.65;8.73;;;9.50;99.90;;;;;;5005129;28;20518;-71
2023/12/12 05:49:25;;;;;;;23.92;6.65;;;9.50;99.90;;;;;;5005578;28;20034;-71
2023/12/12 05:51:51;;;;;;;31.40;7.10;;;9.50;99.90;;;;;;4984801;28;20113;-71
2023/12/12 05:54:17;;;;;;;28.25;7.43;;;9.50;99.90;;;;;;5002561;28;20372;-71
2023/12/12 05:56:45;;;;;;;30.63;6.80;;;9.50;99.90;;;;;;5002996;28;20033;-71
2023/12/12 05:59:14;;;;;;;31.98;7.75;;;9.50;99.90;;;;;;5006233;28;20052;-71
2023/12/12 06:01:43;;;;;;;31.67;7.88;;;9.50;99.90;;;;;;5003473;28;20544;-74
2023/12/12 06:04:16;;;;;;;42.28;8.18;;;9.50;99.90;;;;;;5000475;28;20028;-73
2023/12/12 06:06:43;;;;;;;45.28;8.02;;;9.40;99.90;;;;;;5007750;28;20014;-73
2023/12/12 06:09:12;;;;;;;30.33;7.18;;;9.40;99.90;;;;;;5004608;28;20115;-71
2023/12/12 06:11:39;;;;;;;40.63;8.23;;;9.50;99.90;;;;;;5001174;28;20022;-71
2023/12/12 06:14:05;;;;;;;42.47;6.65;;;9.50;99.90;;;;;;5001704;28;20376;-71
2023/12/12 06:16:33;;;;;;;33.72;6.82;;;9.50;99.90;;;;;;5000776;28;20030;-73
2023/12/12 06:18:59;;;;;;;49.08;7.68;;;9.50;99.90;;;;;;5000024;28;20097;-71
2023/12/12 06:21:25;;;;;;;26.88;6.32;;;9.50;99.90;;;;;;5002525;28;20033;-72
2023/12/12 06:23:51;;;;;;;45.17;7.03;;;9.50;99.90;;;;;;5004171;28;20033;-71
2023/12/12 06:26:17;;;;;;;45.22;6.72;;;9.50;99.90;;;;;;5001700;28;20429;-71
2023/12/12 06:28:44;;;;;;;34.53;7.00;;;9.60;99.90;;;;;;5002693;28;20057;-73
2023/12/12 06:31:10;;;;;;;43.20;7.55;;;9.60;99.90;;;;;;5002618;28;20018;-73
2023/12/12 06:33:35;;;;;;;53.08;8.75;;;9.60;99.90;;;;;;5000327;28;20033;-74
2023/12/12 06:36:01;;;;;;;39.88;7.25;;;9.60;99.90;;;;;;4999350;28;20040;-72
2023/12/12 06:38:27;;;;;;;46.95;7.80;;;9.60;99.90;;;;;;4980698;28;20021;-71
2023/12/12 06:40:54;;;;;;;48.15;8.63;;;9.60;99.90;;;;;;5000881;28;20161;-74
2023/12/12 06:43:20;;;;;;;45.47;9.80;;;9.60;99.90;;;;;;4996817;28;20026;-73
2023/12/12 06:45:46;;;;;;;26.15;8.18;;;9.70;99.90;;;;;;4998058;28;20022;-71
2023/12/12 06:48:12;;;;;;;41.67;8.77;;;9.70;99.90;;;;;;4997422;28;20038;-73
2023/12/12 06:50:38;;;;;;;42.88;7.97;;;9.80;99.90;;;;;;5002197;28;20010;-70
2023/12/12 06:53:03;;;;;;;44.75;9.73;;;9.80;99.90;;;;;;5000324;28;20391;-73
2023/12/12 06:55:29;;;;;;;38.85;8.50;;;9.80;99.90;;;;;;5001356;28;20026;-71
2023/12/12 06:57:55;;;;;;;44.45;7.68;;;9.80;99.90;;;;;;4998275;28;20034;-72
2023/12/12 07:00:21;;;;;;;34.83;6.65;;;9.80;99.90;;;;;;4988329;28;20029;-72
2023/12/12 07:02:47;;;;;;;47.33;8.07;;;9.70;99.90;;;;;;5001079;28;20117;-71
2023/12/12 07:05:15;;;;;;;39.22;7.75;;;9.70;99.90;;;;;;5000212;28;20165;-70
2023/12/12 07:07:41;;;;;;;45.83;7.40;;;9.70;99.90;;;;;;5002899;28;20041;-71
2023/12/12 07:10:07;;;;;;;36.42;7.03;;;9.70;99.90;;;;;;5000361;28;20578;-71
2023/12/12 07:12:33;;;;;;;27.85;6.90;;;9.70;99.90;;;;;;5000189;28;20026;-71
2023/12/12 07:14:59;;;;;;;28.45;6.75;;;9.70;99.90;;;;;;4979852;28;20041;-70
2023/12/12 07:17:24;;;;;;;41.33;8.15;;;9.70;99.90;;;;;;5001519;28;20029;-70
2023/12/12 07:19:51;;;;;;;40.20;7.63;;;9.70;99.90;;;;;;4987271;28;20554;-70
2023/12/12 07:22:16;;;;;;;38.40;7.72;;;9.70;99.90;;;;;;5001242;28;20044;-71
2023/12/12 07:24:42;;;;;;;29.70;6.85;;;9.70;99.90;;;;;;5002249;28;20386;-71
2023/12/12 07:27:09;;;;;;;47.58;7.68;;;9.70;99.90;;;;;;4999230;28;20105;-70
2023/12/12 07:29:34;;;;;;;31.23;6.47;;;9.80;99.90;;;;;;4998304;28;20080;-71
2023/12/12 07:32:00;;;;;;;42.78;6.72;;;9.80;99.90;;;;;;4998981;28;20030;-71
2023/12/12 07:34:26;;;;;;;28.67;6.50;;;9.70;99.90;;;;;;5002070;28;20117;-73
2023/12/12 07:36:52;;;;;;;32.97;7.43;;;9.80;99.90;;;;;;4999058;28;20030;-74
2023/12/12 07:39:17;;;;;;;24.30;7.00;;;9.70;99.90;;;;;;5000136;28;20030;-71
2023/12/12 07:41:43;;;;;;;32.83;7.40;;;9.80;99.90;;;;;;4998686;28;20030;-70
2023/12/12 07:44:09;;;;;;;27.83;6.00;;;9.70;99.90;;;;;;4999439;28;20475;-71
2023/12/12 07:46:38;;;;;;;30.38;5.88;;;9.70;99.90;;;;;;4998161;28;20018;-74
2023/12/12 07:49:05;;;;;;;39.40;6.38;;;9.60;99.90;;;;;;4999820;28;20041;-71
2023/12/12 07:51:32;;;;;;;36.80;6.93;;;9.70;99.90;;;;;;4999320;28;20030;-73
2023/12/12 07:53:59;;;;;;;25.00;7.18;;;9.60;99.90;;;;;;4998473;28;20495;-71
2023/12/12 07:56:25;;;;;;;39.50;7.10;;;9.60;99.90;;;;;;4977077;28;20099;-70
2023/12/12 07:58:51;;;;;;;35.35;7.45;;;9.60;99.90;;;;;;5000907;28;20022;-71
2023/12/12 08:01:16;;;;;;;49.35;8.00;;;9.60;99.90;;;;;;4996085;28;20148;-71
2023/12/12 08:03:42;;;;;;;30.20;5.80;;;9.60;99.90;;;;;;4999944;28;20133;-71
2023/12/12 08:06:08;;;;;;;25.88;7.00;;;9.60;99.90;;;;;;4999010;28;20034;-71
2023/12/12 08:08:34;;;;;;;31.33;6.22;;;9.50;99.90;;;;;;4999045;28;20025;-73
2023/12/12 08:11:00;;;;;;;29.60;6.03;;;9.50;99.90;;;;;;4998803;28;20076;-71
2023/12/12 08:13:27;;;;;;;28.88;6.53;;;9.50;99.90;;;;;;5000821;28;20022;-72
2023/12/12 08:15:53;;;;;;;35.15;6.00;;;9.50;99.90;;;;;;5001548;28;21402;-71
2023/12/12 08:18:18;;;;;;;35.00;6.53;;;9.50;99.90;;;;;;4978548;28;20034;-71
2023/12/12 08:20:44;;;;;;;23.88;5.80;;;9.50;99.90;;;;;;4998805;28;20041;-73
2023/12/12 08:23:10;;;;;;;27.77;6.85;;;9.60;99.90;;;;;;4994612;28;20081;-74
2023/12/12 08:25:36;;;;;;;27.88;7.13;;;9.70;99.90;;;;;;4983303;28;20026;-70
2023/12/12 08:28:03;;;;;;;39.42;9.40;;;9.70;99.90;;;;;;4996881;28;20021;-71
2023/12/12 08:30:28;;;;;;;29.73;8.77;;;9.70;99.90;;;;;;4999057;28;20033;-71
2023/12/12 08:32:54;;;;;;;29.50;7.45;;;9.70;99.90;;;;;;4998253;28;20057;-70
2023/12/12 08:35:20;;;;;;;35.47;8.43;;;9.80;99.90;;;;;;4999640;28;20097;-70
2023/12/12 08:37:47;;;;;;;27.02;7.50;;;9.80;99.90;;;;;;4999760;28;20108;-71
2023/12/12 08:40:13;;;;;;;31.75;6.78;;;9.70;99.90;;;;;;4999142;28;20061;-70
2023/12/12 08:42:39;;;;;;;36.00;7.63;;;9.80;99.90;;;;;;4999461;28;20029;-70
2023/12/12 08:45:06;;;;;;;30.15;7.07;;;9.80;99.90;;;;;;5001092;28;20025;-69
2023/12/12 08:47:32;;;;;;;28.52;7.05;;;9.80;99.90;;;;;;5000194;28;20038;-70
2023/12/12 08:49:59;;;;;;;27.60;6.80;;;9.90;99.90;;;;;;5001446;28;20056;-70
2023/12/12 08:52:26;;;;;;;23.30;6.95;;;9.90;99.90;;;;;;4975366;28;20539;-70
2023/12/12 08:54:52;;;;;;;24.40;6.55;;;10.00;99.90;;;;;;4998255;28;20053;-70
2023/12/12 08:57:19;;;;;;;18.23;4.47;;;10.10;99.90;;;;;;4997706;28;20021;-70
2023/12/12 08:59:45;;;;;;;24.08;5.47;;;10.10;99.90;;;;;;4998222;28;20109;-70
2023/12/12 09:02:11;;;;;;;19.08;4.93;;;10.10;99.90;;;;;;5000528;28;20117;-69
2023/12/12 09:04:37;;;;;;;21.00;4.65;;;10.10;99.90;;;;;;4986009;28;20088;-71
2023/12/12 09:07:03;;;;;;;21.98;5.55;;;10.20;99.90;;;;;;4999645;28;20022;-70
2023/12/12 09:09:31;;;;;;;19.73;4.18;;;10.20;99.90;;;;;;4998198;28;20108;-70
2023/12/12 09:11:58;;;;;;;18.83;4.65;;;10.20;99.90;;;;;;4999754;28;20034;-70
2023/12/12 09:14:24;;;;;;;16.65;4.28;;;10.30;99.90;;;;;;5000376;28;20092;-70
2023/12/12 09:16:50;;;;;;;27.73;5.78;;;10.40;99.90;;;;;;4998835;28;20026;-70
2023/12/12 09:19:16;;;;;;;25.35;4.43;;;10.40;99.90;;;;;;4995809;28;20030;-69
2023/12/12 09:21:42;;;;;;;22.65;4.13;;;10.50;99.90;;;;;;4995663;28;20097;-68
2023/12/12 09:24:08;;;;;;;15.90;3.90;;;10.50;99.90;;;;;;5000714;28;20191;-69
2023/12/12 09:26:35;;;;;;;20.52;3.72;;;10.60;99.90;;;;;;4995320;28;20133;-73
2023/12/12 09:29:01;;;;;;;17.40;4.65;;;10.60;99.90;;;;;;5000872;28;20080;-70
2023/12/12 09:31:28;;;;;;;29.48;4.53;;;10.60;99.90;;;;;;4999247;28;20026;-70
2023/12/12 09:33:55;;;;;;;18.45;4.22;;;10.70;99.90;;;;;;4995999;28;20117;-69
2023/12/12 09:36:21;;;;;;;22.58;4.13;;;10.70;99.90;;;;;;4997775;28;20026;-69
2023/12/12 09:38:47;;;;;;;11.77;4.25;;;10.70;99.90;;;;;;4996628;28;20101;-72
2023/12/12 09:41:23;;;;;;;15.77;3.42;;;10.80;99.90;;;;;;4996135;28;20026;-70
2023/12/12 09:43:50;;;;;;;17.95;3.78;;;10.80;99.90;;;;;;4996681;28;20474;-69
2023/12/12 09:46:17;;;;;;;15.05;3.50;;;10.90;99.90;;;;;;5001221;28;20025;-71
2023/12/12 09:48:45;;;;;;;11.57;3.70;;;10.90;99.90;;;;;;5001956;28;20073;-70
2023/12/12 09:51:14;;;;;;;16.92;3.33;;;10.80;99.90;;;;;;5003951;28;20033;-71
2023/12/12 09:53:46;;;;;;;14.80;3.53;;;10.80;99.90;;;;;;5003368;28;20025;-72
2023/12/12 09:56:16;;;;;;;14.18;3.80;;;10.80;99.90;;;;;;5001469;28;20029;-72
2023/12/12 09:58:49;;;;;;;16.80;4.47;;;10.80;99.90;;;;;;5000840;28;20022;-73
2023/12/12 10:01:16;;;;;;;22.13;3.45;;;10.90;99.90;;;;;;5002988;28;20471;-71
2023/12/12 10:03:42;;;;;;;13.82;3.63;;;10.90;99.90;;;;;;5002525;28;20033;-72
2023/12/12 10:06:12;;;;;;;12.57;2.70;;;11.00;99.90;;;;;;5000215;28;20018;-69
2023/12/12 10:08:39;;;;;;;16.02;3.45;;;11.00;99.90;;;;;;4999860;28;20041;-72
2023/12/12 10:11:09;;;;;;;9.65;3.05;;;11.20;99.90;;;;;;5002782;28;20022;-72
2023/12/12 10:13:50;;;;;;;15.15;3.90;;;11.10;99.90;;;;;;5003245;28;20033;-70
2023/12/12 10:16:16;;;;;;;20.83;3.40;;;11.30;99.90;;;;;;5000592;28;20037;-71
2023/12/12 10:18:46;;;;;;;11.88;3.28;;;11.30;99.90;;;;;;4998414;28;20068;-71
2023/12/12 10:21:22;;;;;;;16.85;3.50;;;11.40;99.90;;;;;;4999795;28;20475;-70
2023/12/12 10:23:52;;;;;;;6.75;3.40;;;11.50;99.90;;;;;;5001305;28;20058;-71
2023/12/12 10:26:26;;;;;;;11.48;3.30;;;11.50;99.90;;;;;;5000405;28;20034;-70
2023/12/12 10:28:54;;;;;;;44.35;5.45;;;11.60;99.90;;;;;;5002196;28;20058;-71
2023/12/12 10:31:20;;;;;;;16.27;3.45;;;11.60;99.90;;;;;;5003335;28;20028;-73
2023/12/12 10:33:47;;;;;;;12.15;3.20;;;11.60;99.90;;;;;;5003129;28;20042;-71
2023/12/12 10:36:12;;;;;;;7.40;3.05;;;11.70;99.90;;;;;;4984330;28;20093;-71
2023/12/12 10:38:39;;;;;;;14.07;3.40;;;11.80;99.90;;;;;;4999903;28;20491;-73
2023/12/12 10:41:16;;;;;;;12.07;3.22;;;11.90;99.90;;;;;;4999585;28;20106;-70
2023/12/12 10:43:43;;;;;;;12.70;3.47;;;12.00;99.90;;;;;;5001976;28;20080;-71
2023/12/12 10:46:14;;;;;;;12.20;3.08;;;11.90;99.90;;;;;;5000075;28;20488;-71
2023/12/12 10:48:52;;;;;;;14.52;2.95;;;11.90;99.90;;;;;;4999515;28;20034;-72
2023/12/12 10:51:18;;;;;;;12.40;3.03;;;11.90;99.90;;;;;;5000375;28;20018;-71
2023/12/12 10:53:46;;;;;;;10.90;2.63;;;12.00;99.90;;;;;;4989332;28;20109;-71
2023/12/12 10:56:14;;;;;;;12.48;3.38;;;12.00;99.90;;;;;;4999523;28;20041;-72
2023/12/12 10:58:41;;;;;;;8.30;3.13;;;12.00;99.90;;;;;;5003048;28;20166;-72
2023/12/12 11:01:12;;;;;;;14.98;3.58;;;12.00;99.90;;;;;;4995281;28;20018;-71
2023/12/12 11:03:40;;;;;;;11.65;3.55;;;12.00;99.90;;;;;;5001040;28;20017;-71
2023/12/12 11:06:07;;;;;;;11.32;2.90;;;12.10;99.90;;;;;;4990172;28;20049;-73
2023/12/12 11:08:33;;;;;;;10.57;3.80;;;12.10;99.90;;;;;;5001076;28;20018;-71
2023/12/12 11:11:20;;;;;;;12.40;3.35;;;12.10;99.90;;;;;;5000260;28;20026;-72
2023/12/12 11:13:47;;;;;;;12.75;3.30;;;12.10;99.90;;;;;;5000383;28;20038;-73
2023/12/12 11:16:13;;;;;;;10.18;2.95;;;12.00;99.90;;;;;;4998903;28;20046;-73
2023/12/12 11:18:42;;;;;;;7.53;2.88;;;12.10;99.90;;;;;;5000504;28;20176;-73
2023/12/12 11:21:28;;;;;;;12.38;3.83;;;12.20;99.90;;;;;;5000502;28;20026;-72
2023/12/12 11:23:54;;;;;;;12.80;4.07;;;12.10;99.90;;;;;;5000711;28;20034;-73
2023/12/12 11:26:26;;;;;;;13.20;3.17;;;12.10;99.90;;;;;;5002782;28;20363;-73
2023/12/12 11:28:54;;;;;;;8.95;3.28;;;12.10;99.90;;;;;;4998649;28;20482;-73
2023/12/12 11:31:33;;;;;;;12.43;2.97;;;12.20;99.90;;;;;;4996203;28;20037;-72
2023/12/12 11:34:08;;;;;;;8.85;2.72;;;12.20;99.90;;;;;;4998813;28;20042;-72
2023/12/12 11:36:59;;;;;;;11.75;3.10;;;12.20;99.90;;;;;;4977468;28;20023;-72
2023/12/12 11:39:37;;;;;;;10.20;2.70;;;12.20;99.90;;;;;;4999917;28;20066;-73
2023/12/12 11:42:05;;;;;;;9.25;3.00;;;12.30;99.90;;;;;;4996953;28;20132;-71
2023/12/12 11:44:42;;;;;;;8.05;2.90;;;12.30;99.90;;;;;;4986757;28;20061;-71
2023/12/12 11:47:14;;;;;;;7.40;2.75;;;12.30;99.90;;;;;;4999206;28;20036;-72
2023/12/12 11:49:39;;;;;;;9.13;3.10;;;12.30;99.90;;;;;;4998977;28;20477;-73
2023/12/12 11:52:05;;;;;;;6.47;2.90;;;12.10;99.90;;;;;;4999225;28;20067;-72
2023/12/12 11:54:31;;;;;;;10.15;3.08;;;12.10;99.90;;;;;;4998978;28;20495;-72
2023/12/12 11:56:58;;;;;;;11.20;3.45;;;12.10;99.90;;;;;;5000318;28;20048;-72
2023/12/12 11:59:26;;;;;;;7.10;3.30;;;12.20;99.90;;;;;;4996614;28;20022;-72
2023/12/12 12:01:52;;;;;;;10.35;3.53;;;12.10;99.90;;;;;;4994777;28;20044;-72
2023/12/12 12:04:19;;;;;;;8.98;3.92;;;12.20;99.90;;;;;;4982626;28;20029;-71
2023/12/12 12:06:45;;;;;;;10.05;4.13;;;12.10;99.90;;;;;;4999157;28;20026;-71
2023/12/12 12:09:15;;;;;;;12.13;4.22;;;12.10;99.90;;;;;;4997991;28;20037;-73
2023/12/12 12:11:46;;;;;;;13.82;4.13;;;12.10;99.90;;;;;;4995710;28;20026;-74
2023/12/12 12:14:13;;;;;;;10.10;4.10;;;12.20;99.90;;;;;;4997578;28;20092;-74
2023/12/12 12:16:39;;;;;;;10.35;3.92;;;12.10;99.90;;;;;;4999608;28;20471;-72
2023/12/12 12:19:27;;;;;;;10.52;4.47;;;12.10;99.90;;;;;;4999383;28;20030;-72
2023/12/12 12:21:52;;;;;;;10.50;3.58;;;12.10;99.90;;;;;;4998476;28;20026;-72
2023/12/12 12:24:18;;;;;;;9.25;4.25;;;12.20;99.90;;;;;;5001977;28;20455;-72
2023/12/12 12:26:44;;;;;;;7.70;4.13;;;12.20;99.90;;;;;;5000508;28;20092;-71
2023/12/12 12:29:10;;;;;;;6.10;3.40;;;12.10;99.90;;;;;;4996065;28;20482;-73
2023/12/12 12:31:38;;;;;;;9.50;3.90;;;12.10;99.90;;;;;;4999260;28;20037;-72
2023/12/12 12:34:19;;;;;;;9.02;4.50;;;12.20;99.90;;;;;;4997032;28;20038;-73
2023/12/12 12:36:49;;;;;;;10.63;4.05;;;12.10;99.90;;;;;;4999193;28;20283;-71
2023/12/12 12:39:16;;;;;;;9.55;4.70;;;12.20;99.90;;;;;;5000582;28;20102;-70
2023/12/12 12:41:52;;;;;;;11.27;4.32;;;12.20;99.90;;;;;;4999524;28;20066;-70